createdAt,value
2017-08-17T00:01:20.807Z,19.40
2017-08-17T00:03:48.231Z,19.30
2017-08-17T00:06:15.664Z,19.30
2017-08-17T00:08:43.091Z,19.30
2017-08-17T00:11:10.531Z,19.30
2017-08-17T00:13:37.967Z,19.30
2017-08-17T00:16:06.164Z,19.30
2017-08-17T00:18:34.572Z,19.20
2017-08-17T00:21:01.996Z,19.20
2017-08-17T00:23:29.432Z,19.10
2017-08-17T00:25:56.860Z,18.90
2017-08-17T00:28:24.293Z,18.90
2017-08-17T00:30:51.724Z,18.90
2017-08-17T00:33:19.155Z,18.80
2017-08-17T00:35:47.351Z,18.70
2017-08-17T00:38:14.892Z,18.70
2017-08-17T00:40:43.091Z,18.80
2017-08-17T00:43:10.519Z,18.80
2017-08-17T00:45:38.719Z,18.70
2017-08-17T00:48:06.151Z,18.70
2017-08-17T00:50:33.584Z,18.80
2017-08-17T00:53:01.019Z,18.70
2017-08-17T00:55:28.453Z,18.70
2017-08-17T00:57:55.884Z,18.70
2017-08-17T01:00:24.082Z,18.70
2017-08-17T01:02:51.511Z,18.60
2017-08-17T01:05:19.712Z,18.70
2017-08-17T01:07:47.157Z,18.70
2017-08-17T01:10:17.372Z,18.70
2017-08-17T01:12:45.568Z,18.70
2017-08-17T01:15:13.005Z,18.70
2017-08-17T01:17:41.200Z,18.70
2017-08-17T01:20:08.665Z,18.70
2017-08-17T01:22:36.098Z,18.60
2017-08-17T01:25:03.533Z,18.70
2017-08-17T01:27:30.960Z,18.70
2017-08-17T01:29:58.400Z,18.70
2017-08-17T01:32:25.831Z,18.70
2017-08-17T01:34:53.372Z,18.70
2017-08-17T01:37:21.568Z,18.60
2017-08-17T01:39:48.999Z,18.60
2017-08-17T01:42:18.188Z,18.50
2017-08-17T01:44:45.633Z,18.50
2017-08-17T01:47:25.088Z,18.50
2017-08-17T01:49:53.291Z,18.40
2017-08-17T01:52:20.733Z,18.40
2017-08-17T01:54:48.936Z,18.40
2017-08-17T01:57:16.363Z,18.40
2017-08-17T01:59:44.569Z,18.40
2017-08-17T02:02:12.009Z,18.40
2017-08-17T02:04:39.449Z,18.50
2017-08-17T02:07:07.647Z,18.40
2017-08-17T02:09:35.081Z,18.40
2017-08-17T02:12:03.280Z,18.30
2017-08-17T02:14:30.719Z,18.30
2017-08-17T02:16:59.186Z,18.30
2017-08-17T02:19:27.376Z,18.30
2017-08-17T02:21:54.816Z,18.20
2017-08-17T02:24:22.248Z,18.20
2017-08-17T02:26:49.688Z,18.20
2017-08-17T02:29:17.115Z,18.20
2017-08-17T02:31:44.561Z,18.20
2017-08-17T02:34:11.995Z,18.20
2017-08-17T02:36:39.433Z,18.20
2017-08-17T02:39:06.869Z,18.20
2017-08-17T02:41:34.319Z,18.20
2017-08-17T02:44:01.744Z,18.20
2017-08-17T02:46:29.185Z,18.10
2017-08-17T02:48:57.377Z,18.10
2017-08-17T02:51:24.812Z,18.10
2017-08-17T02:53:53.021Z,18.10
2017-08-17T02:56:20.448Z,18.10
2017-08-17T02:58:48.644Z,18.10
2017-08-17T03:01:16.076Z,18.10
2017-08-17T03:03:44.281Z,18.10
2017-08-17T03:06:11.716Z,18.10
2017-08-17T03:08:39.921Z,18.00
2017-08-17T03:11:07.352Z,18.00
2017-08-17T03:13:34.784Z,18.00
2017-08-17T03:16:02.216Z,17.80
2017-08-17T03:18:29.652Z,17.80
2017-08-17T03:20:57.093Z,17.80
2017-08-17T03:23:24.524Z,17.80
2017-08-17T03:25:52.720Z,17.90
2017-08-17T03:28:20.157Z,17.80
2017-08-17T03:30:48.349Z,17.80
2017-08-17T03:33:15.784Z,17.80
2017-08-17T03:35:43.217Z,17.70
2017-08-17T03:38:10.700Z,17.70
2017-08-17T03:40:38.124Z,17.80
2017-08-17T03:43:05.568Z,17.80
2017-08-17T03:45:33.001Z,17.80
2017-08-17T03:48:00.441Z,17.80
2017-08-17T03:50:27.864Z,17.80
2017-08-17T03:52:55.364Z,17.90
2017-08-17T03:55:22.795Z,17.90
2017-08-17T03:57:51.989Z,17.80
2017-08-17T04:00:20.197Z,17.70
2017-08-17T04:02:47.623Z,17.70
2017-08-17T04:05:15.069Z,17.70
2017-08-17T04:07:42.502Z,17.80
2017-08-17T04:10:10.001Z,17.80
2017-08-17T04:12:37.412Z,17.80
2017-08-17T04:15:04.867Z,17.80
2017-08-17T04:17:32.288Z,17.80
2017-08-17T04:19:59.729Z,17.80
2017-08-17T04:22:27.919Z,17.70
2017-08-17T04:24:55.361Z,17.70
2017-08-17T04:27:23.557Z,17.80
2017-08-17T04:29:51.000Z,17.70
2017-08-17T04:32:18.431Z,17.80
2017-08-17T04:34:45.864Z,17.80
2017-08-17T04:37:13.306Z,17.80
2017-08-17T04:39:40.753Z,17.80
2017-08-17T04:42:08.180Z,17.80
2017-08-17T04:44:35.631Z,17.80
2017-08-17T04:47:03.828Z,17.70
2017-08-17T04:49:31.256Z,17.70
2017-08-17T04:51:58.691Z,17.70
2017-08-17T04:54:26.120Z,17.80
2017-08-17T05:00:13.118Z,17.90
2017-08-17T05:02:40.552Z,17.90
2017-08-17T05:05:07.975Z,17.90
2017-08-17T05:07:35.415Z,17.90
2017-08-17T05:10:02.845Z,18.00
2017-08-17T05:12:30.280Z,18.00
2017-08-17T05:14:58.483Z,18.20
2017-08-17T05:17:25.920Z,18.10
2017-08-17T05:19:54.120Z,18.20
2017-08-17T05:22:21.561Z,18.20
2017-08-17T05:24:48.992Z,18.30
2017-08-17T05:27:16.448Z,18.30
2017-08-17T05:29:43.906Z,18.40
2017-08-17T05:32:11.332Z,18.50
2017-08-17T05:34:38.773Z,18.50
2017-08-17T05:37:06.200Z,18.60
2017-08-17T05:39:33.641Z,18.70
2017-08-17T05:42:01.072Z,18.70
2017-08-17T05:44:28.508Z,18.80
2017-08-17T05:46:55.939Z,18.90
2017-08-17T05:49:23.377Z,19.00
2017-08-17T05:51:51.568Z,19.10
2017-08-17T05:54:19.572Z,19.10
2017-08-17T05:56:47.067Z,19.10
2017-08-17T05:59:15.273Z,19.30
2017-08-17T06:01:42.705Z,19.30
2017-08-17T06:04:10.903Z,19.40
2017-08-17T06:06:38.332Z,19.40
2017-08-17T06:09:09.800Z,19.50
2017-08-17T06:11:37.233Z,19.50
2017-08-17T06:14:10.028Z,19.50
2017-08-17T06:16:38.240Z,19.70
2017-08-17T06:19:05.671Z,19.70
2017-08-17T06:21:33.107Z,19.80
2017-08-17T06:24:01.308Z,19.90
2017-08-17T06:26:28.751Z,19.90
2017-08-17T06:28:56.943Z,20.00
2017-08-17T06:31:24.390Z,20.00
2017-08-17T06:33:51.816Z,20.10
2017-08-17T06:36:19.244Z,20.10
2017-08-17T06:38:46.685Z,20.30
2017-08-17T06:41:14.125Z,20.50
2017-08-17T06:43:41.552Z,20.70
2017-08-17T06:46:09.011Z,21.10
2017-08-17T06:48:37.213Z,21.50
2017-08-17T06:51:04.643Z,21.50
2017-08-17T06:53:32.078Z,21.70
2017-08-17T06:55:59.516Z,21.90
2017-08-17T06:58:26.950Z,22.10
2017-08-17T07:00:54.413Z,22.20
2017-08-17T07:03:21.856Z,22.30
2017-08-17T07:05:49.288Z,22.40
2017-08-17T07:08:16.739Z,22.50
2017-08-17T07:10:44.939Z,22.60
2017-08-17T07:13:12.376Z,22.60
2017-08-17T07:15:39.817Z,22.70
2017-08-17T07:18:07.301Z,22.70
2017-08-17T07:20:43.202Z,22.70
2017-08-17T07:23:10.637Z,22.80
2017-08-17T07:25:38.069Z,23.10
2017-08-17T07:28:05.505Z,23.30
2017-08-17T07:30:32.932Z,23.40
2017-08-17T07:33:03.905Z,23.40
2017-08-17T07:35:33.104Z,23.90
2017-08-17T07:38:01.305Z,24.10
2017-08-17T07:40:28.732Z,24.10
2017-08-17T07:42:56.932Z,24.50
2017-08-17T07:45:24.359Z,24.50
2017-08-17T07:47:52.577Z,24.60
2017-08-17T07:50:20.004Z,24.60
2017-08-17T07:52:47.432Z,24.80
2017-08-17T07:55:14.868Z,25.00
2017-08-17T07:57:43.284Z,25.30
2017-08-17T08:00:11.492Z,25.50
2017-08-17T08:02:38.921Z,25.60
2017-08-17T08:05:06.358Z,25.40
2017-08-17T08:07:33.792Z,25.40
2017-08-17T08:10:01.244Z,25.40
2017-08-17T08:12:28.664Z,25.60
2017-08-17T08:14:56.104Z,25.80
2017-08-17T08:17:23.547Z,25.70
2017-08-17T08:19:50.995Z,25.80
2017-08-17T08:22:18.431Z,25.80
2017-08-17T08:24:45.866Z,25.90
2017-08-17T08:27:13.288Z,26.00
2017-08-17T08:29:40.720Z,26.00
2017-08-17T08:32:08.156Z,26.20
2017-08-17T08:34:35.589Z,26.10
2017-08-17T08:37:03.024Z,26.10
2017-08-17T08:39:30.451Z,26.10
2017-08-17T08:41:57.888Z,26.20
2017-08-17T08:44:25.319Z,26.10
2017-08-17T08:46:52.751Z,26.10
2017-08-17T08:49:20.180Z,26.10
2017-08-17T08:51:47.616Z,26.00
2017-08-17T08:54:15.049Z,25.80
2017-08-17T08:56:42.493Z,25.70
2017-08-17T08:59:10.941Z,25.60
2017-08-17T09:01:38.376Z,25.50
2017-08-17T09:04:05.804Z,25.50
2017-08-17T09:06:33.250Z,25.40
2017-08-17T09:09:00.680Z,25.50
2017-08-17T09:11:29.148Z,25.50
2017-08-17T09:13:56.575Z,25.60
2017-08-17T09:16:24.025Z,25.50
2017-08-17T09:18:51.452Z,25.60
2017-08-17T09:21:18.900Z,25.60
2017-08-17T09:23:48.384Z,25.70
2017-08-17T09:26:15.812Z,25.70
2017-08-17T09:28:43.252Z,25.60
2017-08-17T09:31:10.694Z,25.70
2017-08-17T09:33:38.132Z,25.70
2017-08-17T09:36:05.561Z,25.80
2017-08-17T09:38:32.996Z,26.00
2017-08-17T09:41:02.525Z,26.30
2017-08-17T09:43:29.960Z,26.60
2017-08-17T09:45:57.396Z,26.80
2017-08-17T09:48:25.564Z,26.80
2017-08-17T09:50:52.994Z,27.00
2017-08-17T09:53:20.432Z,27.20
2017-08-17T09:55:48.629Z,27.60
2017-08-17T09:58:16.162Z,27.50
2017-08-17T10:00:43.611Z,27.50
2017-08-17T10:03:11.040Z,27.70
2017-08-17T10:05:38.536Z,27.80
2017-08-17T10:08:05.980Z,27.80
2017-08-17T10:10:33.412Z,27.80
2017-08-17T10:13:00.848Z,27.90
2017-08-17T10:15:28.287Z,28.20
2017-08-17T10:17:55.729Z,28.50
2017-08-17T10:20:23.166Z,28.50
2017-08-17T10:22:51.351Z,28.70
2017-08-17T10:25:18.788Z,28.70
2017-08-17T10:27:46.217Z,29.00
2017-08-17T10:30:13.673Z,29.10
2017-08-17T10:32:41.108Z,29.30
2017-08-17T10:35:08.533Z,29.50
2017-08-17T10:37:35.960Z,29.70
2017-08-17T10:40:03.387Z,29.70
2017-08-17T10:42:30.828Z,29.80
2017-08-17T10:44:58.247Z,29.80
2017-08-17T10:47:26.448Z,29.70
2017-08-17T10:49:53.880Z,29.70
2017-08-17T10:52:22.087Z,29.50
2017-08-17T10:54:49.505Z,29.40
2017-08-17T10:57:16.965Z,29.30
2017-08-17T10:59:44.396Z,29.40
2017-08-17T11:02:11.848Z,29.50
2017-08-17T11:04:39.273Z,29.80
2017-08-17T11:07:06.705Z,29.60
2017-08-17T11:09:34.955Z,29.50
2017-08-17T11:12:02.390Z,29.50
2017-08-17T11:14:29.817Z,29.40
2017-08-17T11:16:57.238Z,29.40
2017-08-17T11:19:25.711Z,29.50
2017-08-17T11:21:53.141Z,29.50
2017-08-17T11:24:20.573Z,29.30
2017-08-17T11:26:53.100Z,29.10
2017-08-17T11:29:21.921Z,29.00
2017-08-17T11:31:49.331Z,28.80
2017-08-17T11:34:16.774Z,28.70
2017-08-17T11:36:44.261Z,28.70
2017-08-17T11:39:11.724Z,28.50
2017-08-17T11:41:39.155Z,28.60
2017-08-17T11:44:06.594Z,28.70
2017-08-17T11:46:34.021Z,28.90
2017-08-17T11:49:01.457Z,29.00
2017-08-17T11:51:29.158Z,28.80
2017-08-17T11:53:56.593Z,28.90
2017-08-17T11:56:24.015Z,29.10
2017-08-17T11:58:51.453Z,29.20
2017-08-17T12:01:19.151Z,29.20
2017-08-17T12:03:46.556Z,29.30
2017-08-17T12:06:14.016Z,29.30
2017-08-17T12:08:41.459Z,29.30
2017-08-17T12:11:12.576Z,29.20
2017-08-17T12:13:40.002Z,29.10
2017-08-17T12:16:07.436Z,29.00
2017-08-17T12:18:34.919Z,28.90
2017-08-17T12:21:02.349Z,29.10
2017-08-17T12:23:29.775Z,29.10
2017-08-17T12:26:01.736Z,29.20
2017-08-17T12:28:29.180Z,29.20
2017-08-17T12:30:56.621Z,29.30
2017-08-17T12:33:24.808Z,29.10
2017-08-17T12:35:52.235Z,29.10
2017-08-17T12:38:21.701Z,29.00
2017-08-17T12:40:49.112Z,28.80
2017-08-17T12:43:17.304Z,28.80
2017-08-17T12:45:44.733Z,28.80
2017-08-17T12:48:12.165Z,28.90
2017-08-17T12:50:39.585Z,29.00
2017-08-17T12:53:07.016Z,28.90
2017-08-17T12:55:34.450Z,29.00
2017-08-17T12:58:01.880Z,29.10
2017-08-17T13:00:29.304Z,29.00
2017-08-17T13:02:56.761Z,28.90
2017-08-17T13:05:24.185Z,29.00
2017-08-17T13:07:51.618Z,29.00
2017-08-17T13:10:19.096Z,29.10
2017-08-17T13:12:46.523Z,29.00
2017-08-17T13:15:13.957Z,29.00
2017-08-17T13:17:41.371Z,28.80
2017-08-17T13:20:08.803Z,28.70
2017-08-17T13:22:36.231Z,28.50
2017-08-17T13:25:03.664Z,28.30
2017-08-17T13:27:31.093Z,28.30
2017-08-17T13:29:58.524Z,28.30
2017-08-17T13:32:25.943Z,28.20
2017-08-17T13:34:53.411Z,28.20
2017-08-17T13:37:20.835Z,28.20
2017-08-17T13:39:48.270Z,28.30
2017-08-17T13:42:15.704Z,28.20
2017-08-17T13:44:43.141Z,28.20
2017-08-17T13:47:10.572Z,28.20
2017-08-17T13:49:38.000Z,28.20
2017-08-17T13:52:05.433Z,28.20
2017-08-17T13:54:32.863Z,28.30
2017-08-17T13:57:00.288Z,28.10
2017-08-17T13:59:27.719Z,28.00
2017-08-17T14:01:55.159Z,27.90
2017-08-17T14:04:22.576Z,27.80
2017-08-17T14:06:50.003Z,27.70
2017-08-17T14:09:18.199Z,27.60
2017-08-17T14:11:45.645Z,27.60
2017-08-17T14:14:13.060Z,27.50
2017-08-17T14:16:40.672Z,27.50
2017-08-17T14:19:08.123Z,27.50
2017-08-17T14:21:35.544Z,27.50
2017-08-17T14:24:02.982Z,27.50
2017-08-17T14:29:24.349Z,27.20
2017-08-17T14:31:51.796Z,27.10
2017-08-17T14:34:19.224Z,26.90
2017-08-17T14:36:46.653Z,26.90
2017-08-17T14:39:14.083Z,26.80
2017-08-17T14:41:41.508Z,26.80
2017-08-17T14:44:08.980Z,26.80
2017-08-17T14:46:36.400Z,26.70
2017-08-17T14:49:03.889Z,26.60
2017-08-17T14:51:31.285Z,26.60
2017-08-17T14:53:58.724Z,26.50
2017-08-17T14:56:26.131Z,26.40
2017-08-17T14:58:53.600Z,26.50
2017-08-17T15:01:21.032Z,26.50
2017-08-17T15:03:48.469Z,26.40
2017-08-17T15:06:15.887Z,26.40
2017-08-17T15:08:43.336Z,26.40
2017-08-17T15:11:10.776Z,26.40
2017-08-17T15:13:38.236Z,26.40
2017-08-17T15:16:05.775Z,26.10
2017-08-17T15:18:33.175Z,26.10
2017-08-17T15:21:00.600Z,26.10
2017-08-17T15:23:28.024Z,26.10
2017-08-17T15:25:55.456Z,26.00
2017-08-17T15:28:22.880Z,25.90
2017-08-17T15:30:50.312Z,26.00
2017-08-17T15:33:17.735Z,26.00
2017-08-17T15:35:45.168Z,26.00
2017-08-17T15:38:12.592Z,25.80
2017-08-17T15:40:40.036Z,25.70
2017-08-17T15:43:07.455Z,25.80
2017-08-17T15:45:34.896Z,25.80
2017-08-17T15:48:02.308Z,25.70
2017-08-17T15:50:29.744Z,25.70
2017-08-17T15:52:57.165Z,25.70
2017-08-17T15:55:24.592Z,25.50
2017-08-17T15:57:52.022Z,25.50
2017-08-17T16:00:19.720Z,25.40
2017-08-17T16:02:47.156Z,25.40
2017-08-17T16:05:14.592Z,25.30
2017-08-17T16:07:42.112Z,25.30
2017-08-17T16:10:10.348Z,25.30
2017-08-17T16:12:37.784Z,25.30
2017-08-17T16:15:05.222Z,25.40
2017-08-17T16:17:33.423Z,25.30
2017-08-17T16:20:00.836Z,25.20
2017-08-17T16:22:29.037Z,25.10
2017-08-17T16:24:56.461Z,25.10
2017-08-17T16:27:23.884Z,24.90
2017-08-17T16:29:51.316Z,25.00
2017-08-17T16:32:18.736Z,25.00
2017-08-17T16:34:46.168Z,25.10
2017-08-17T16:37:13.600Z,25.10
2017-08-17T16:39:41.029Z,25.10
2017-08-17T16:42:08.451Z,25.10
2017-08-17T16:44:35.895Z,25.00
2017-08-17T16:47:03.364Z,25.10
2017-08-17T16:49:30.791Z,24.90
2017-08-17T16:51:58.225Z,24.90
2017-08-17T16:54:25.651Z,24.90
2017-08-17T16:56:53.076Z,25.00
2017-08-17T16:59:20.513Z,25.00
2017-08-17T17:01:47.935Z,24.90
2017-08-17T17:04:15.371Z,25.00
2017-08-17T17:06:43.571Z,24.90
2017-08-17T17:09:11.024Z,24.90
2017-08-17T17:11:38.462Z,24.80
2017-08-17T17:14:06.646Z,24.80
2017-08-17T17:16:34.067Z,24.80
2017-08-17T17:19:01.496Z,24.80
2017-08-17T17:21:28.954Z,24.70
2017-08-17T17:23:56.348Z,24.80
2017-08-17T17:26:23.790Z,24.80
2017-08-17T17:28:51.228Z,24.80
2017-08-17T17:31:19.002Z,24.80
2017-08-17T17:33:46.404Z,24.80
2017-08-17T17:36:13.858Z,24.80
2017-08-17T17:38:42.039Z,24.70
2017-08-17T17:41:09.484Z,24.70
2017-08-17T17:43:36.928Z,24.70
2017-08-17T17:46:05.128Z,24.70
2017-08-17T17:48:32.549Z,24.60
2017-08-17T17:50:59.986Z,24.60
2017-08-17T17:53:27.405Z,24.60
2017-08-17T17:55:54.836Z,24.50
2017-08-17T17:58:23.023Z,24.50
2017-08-17T18:00:50.493Z,24.40
2017-08-17T18:03:17.915Z,24.40
2017-08-17T18:05:46.124Z,24.40
2017-08-17T18:08:13.569Z,24.40
2017-08-17T18:10:40.993Z,24.40
2017-08-17T18:13:08.467Z,24.40
2017-08-17T18:15:37.673Z,24.30
2017-08-17T18:18:05.857Z,24.30
2017-08-17T18:20:33.290Z,24.20
2017-08-17T18:23:01.483Z,24.10
2017-08-17T18:25:28.904Z,24.10
2017-08-17T18:27:56.349Z,24.00
2017-08-17T18:30:24.762Z,24.00
2017-08-17T18:32:52.956Z,24.00
2017-08-17T18:35:20.384Z,23.90
2017-08-17T18:37:47.861Z,23.90
2017-08-17T18:40:16.060Z,23.90
2017-08-17T18:42:43.493Z,23.90
2017-08-17T18:45:10.932Z,23.90
2017-08-17T18:47:38.355Z,23.90
2017-08-17T18:50:05.791Z,23.80
2017-08-17T18:52:33.230Z,23.80
2017-08-17T18:55:00.661Z,23.80
2017-08-17T18:57:28.843Z,23.60
2017-08-17T18:59:56.392Z,23.60
2017-08-17T19:02:24.587Z,23.60
2017-08-17T19:04:52.012Z,23.50
2017-08-17T19:07:19.431Z,23.50
2017-08-17T19:09:46.867Z,23.50
2017-08-17T19:12:14.308Z,23.40
2017-08-17T19:14:41.744Z,23.40
2017-08-17T19:17:09.172Z,23.40
2017-08-17T19:19:36.615Z,23.40
2017-08-17T19:22:04.033Z,23.40
2017-08-17T19:24:32.296Z,23.20
2017-08-17T19:27:00.561Z,23.20
2017-08-17T19:29:27.992Z,23.20
2017-08-17T19:31:55.422Z,23.20
2017-08-17T19:34:23.974Z,23.20
2017-08-17T19:36:52.248Z,23.20
2017-08-17T19:39:20.465Z,23.20
2017-08-17T19:41:47.912Z,23.20
2017-08-17T19:44:15.349Z,23.20
2017-08-17T19:46:42.780Z,23.20
2017-08-17T19:49:10.272Z,23.20
2017-08-17T19:51:38.443Z,23.10
2017-08-17T19:54:05.869Z,23.10
2017-08-17T19:56:33.293Z,23.10
2017-08-17T19:59:00.732Z,23.10
2017-08-17T20:01:29.263Z,23.10
2017-08-17T20:03:56.696Z,23.10
2017-08-17T20:06:24.137Z,23.10
2017-08-17T20:08:51.636Z,23.10
2017-08-17T20:11:19.101Z,23.00
2017-08-17T20:13:47.287Z,23.00
2017-08-17T20:16:14.711Z,23.00
2017-08-17T20:18:42.147Z,23.00
2017-08-17T20:21:09.572Z,23.00
2017-08-17T20:23:37.006Z,23.00
2017-08-17T20:26:04.424Z,22.90
2017-08-17T20:28:31.867Z,22.90
2017-08-17T20:30:59.293Z,22.90
2017-08-17T20:33:26.716Z,22.90
2017-08-17T20:35:54.167Z,22.90
2017-08-17T20:38:21.604Z,22.90
2017-08-17T20:40:49.029Z,22.90
2017-08-17T20:43:16.457Z,22.90
2017-08-17T20:45:44.644Z,22.90
2017-08-17T20:48:12.076Z,22.80
2017-08-17T20:50:39.500Z,22.90
2017-08-17T20:53:06.937Z,22.70
2017-08-17T20:55:34.363Z,22.70
2017-08-17T20:58:01.788Z,22.70
2017-08-17T21:00:29.280Z,22.60
2017-08-17T21:02:56.711Z,22.60
2017-08-17T21:05:24.140Z,22.60
2017-08-17T21:07:51.571Z,22.60
2017-08-17T21:10:18.991Z,22.60
2017-08-17T21:12:47.188Z,22.50
2017-08-17T21:15:14.615Z,22.50
2017-08-17T21:17:42.808Z,22.50
2017-08-17T21:20:10.243Z,22.40
2017-08-17T21:22:38.436Z,22.50
2017-08-17T21:25:05.859Z,22.40
2017-08-17T21:27:33.337Z,22.50
2017-08-17T21:30:01.533Z,22.40
2017-08-17T21:32:28.957Z,22.40
2017-08-17T21:34:56.389Z,22.40
2017-08-17T21:37:23.812Z,22.40
2017-08-17T21:39:51.240Z,22.40
2017-08-17T21:42:19.433Z,22.30
2017-08-17T21:44:46.884Z,22.30
2017-08-17T21:47:14.305Z,22.30
2017-08-17T21:49:41.741Z,22.20
2017-08-17T21:52:09.168Z,22.20
2017-08-17T21:54:36.597Z,22.10
2017-08-17T21:57:04.796Z,22.10
2017-08-17T21:59:32.227Z,22.10
2017-08-17T22:02:00.433Z,22.10
2017-08-17T22:04:27.864Z,22.10
2017-08-17T22:06:55.304Z,22.10
2017-08-17T22:09:22.724Z,22.00
2017-08-17T22:11:50.157Z,22.00
2017-08-17T22:14:17.581Z,21.90
2017-08-17T22:16:45.785Z,21.90
2017-08-17T22:19:13.213Z,21.90
2017-08-17T22:21:41.439Z,21.80
2017-08-17T22:24:08.847Z,21.70
2017-08-17T22:26:37.054Z,21.50
2017-08-17T22:29:04.472Z,21.40
2017-08-17T22:31:32.667Z,21.40
2017-08-17T22:34:00.100Z,21.40
2017-08-17T22:36:28.295Z,21.40
2017-08-17T22:38:55.732Z,21.40
2017-08-17T22:41:23.920Z,21.40
2017-08-17T22:43:51.347Z,21.40
2017-08-17T22:46:18.772Z,21.40
2017-08-17T22:48:46.204Z,21.40
2017-08-17T22:51:13.628Z,21.40
2017-08-17T22:53:41.093Z,21.40
2017-08-17T22:56:09.286Z,21.40
2017-08-17T22:58:36.716Z,21.30
2017-08-17T23:01:04.914Z,21.30
2017-08-17T23:03:32.348Z,21.30
2017-08-17T23:05:59.764Z,21.30
2017-08-17T23:08:27.195Z,21.30
2017-08-17T23:10:54.617Z,21.20
2017-08-17T23:13:22.808Z,21.20
2017-08-17T23:15:50.235Z,21.20
2017-08-17T23:18:17.659Z,21.20
2017-08-17T23:20:45.097Z,21.20
2017-08-17T23:23:12.524Z,21.10
2017-08-17T23:25:40.729Z,21.10
2017-08-17T23:28:08.157Z,21.10
2017-08-17T23:30:36.351Z,21.00
2017-08-17T23:33:03.777Z,21.00
2017-08-17T23:35:31.212Z,21.00
2017-08-17T23:37:58.644Z,21.00
2017-08-17T23:40:26.072Z,21.00
2017-08-17T23:42:53.504Z,21.00
2017-08-17T23:45:20.940Z,20.90
2017-08-17T23:47:48.363Z,20.90
2017-08-17T23:50:15.797Z,20.90
2017-08-17T23:52:43.215Z,20.90
2017-08-17T23:55:10.659Z,20.90
2017-08-17T23:57:38.096Z,20.90
